Time;durP1;ratioP1;P1;durP2;ratioP2;P2;SDS_P1;SDS_P2;PMS_P1;PMS_P2;Temp;Humidity;BMP_temperature;BMP_pressure;BME280_temperature;BME280_humidity;BME280_pressure;Samples;Min_cycle;Max_cycle;Signal;HPM_P1;HPM_P2
2022/09/14 00:02:18;;;;;;;4.18;1.90;;;20.30;82.60;;;;;;6209836;23;20054;-77
2022/09/14 00:04:44;;;;;;;3.35;1.58;;;20.30;82.60;;;;;;6182671;23;20004;-78
2022/09/14 00:07:09;;;;;;;5.65;1.75;;;20.30;82.70;;;;;;6209668;23;20035;-80
2022/09/14 00:09:35;;;;;;;3.25;1.70;;;20.30;82.80;;;;;;6181746;23;20024;-76
2022/09/14 00:12:00;;;;;;;4.05;2.00;;;20.30;82.80;;;;;;6182421;23;20023;-78
2022/09/14 00:14:26;;;;;;;3.55;1.70;;;20.30;82.90;;;;;;6183622;23;20446;-78
2022/09/14 00:16:51;;;;;;;3.40;1.83;;;20.30;82.90;;;;;;6183116;23;20012;-76
2022/09/14 00:19:23;;;;;;;3.50;1.70;;;20.30;82.90;;;;;;6208876;23;20402;-76
2022/09/14 00:21:51;;;;;;;4.07;1.77;;;20.30;83.00;;;;;;6178234;23;20071;-76
2022/09/14 00:24:17;;;;;;;3.20;1.60;;;20.30;83.00;;;;;;6178062;23;20016;-78
2022/09/14 00:26:43;;;;;;;3.65;1.55;;;20.30;83.00;;;;;;6177448;23;20004;-78
2022/09/14 00:29:09;;;;;;;3.85;1.90;;;20.30;83.00;;;;;;6176111;23;20044;-79
2022/09/14 00:31:37;;;;;;;3.35;1.67;;;20.30;83.00;;;;;;6176212;23;20091;-77
2022/09/14 00:34:04;;;;;;;4.10;1.80;;;20.30;82.90;;;;;;6178398;23;20072;-77
2022/09/14 00:36:32;;;;;;;2.92;1.70;;;20.30;82.90;;;;;;6178542;23;20012;-80
2022/09/14 00:38:59;;;;;;;3.63;1.70;;;20.30;82.80;;;;;;6178222;23;20072;-76
2022/09/14 00:41:31;;;;;;;3.75;1.70;;;20.30;82.70;;;;;;6178111;23;20009;-76
2022/09/14 00:44:04;;;;;;;3.45;1.90;;;20.30;82.60;;;;;;6178249;23;20005;-77
2022/09/14 00:46:35;;;;;;;3.13;1.73;;;20.30;82.60;;;;;;6176384;23;20020;-76
2022/09/14 00:49:03;;;;;;;3.35;1.80;;;20.30;82.60;;;;;;6175465;23;20390;-79
2022/09/14 00:51:31;;;;;;;3.58;1.60;;;20.30;82.60;;;;;;6174362;23;20035;-76
2022/09/14 00:53:59;;;;;;;3.08;1.40;;;20.30;82.70;;;;;;6198848;23;20036;-79
2022/09/14 00:56:25;;;;;;;3.75;1.73;;;20.30;82.80;;;;;;6175137;23;20016;-78
2022/09/14 00:58:52;;;;;;;3.50;1.80;;;20.20;82.80;;;;;;6173184;23;20013;-76
2022/09/14 01:01:18;;;;;;;3.65;1.80;;;20.30;82.90;;;;;;6173685;23;20432;-78
2022/09/14 01:03:43;;;;;;;3.30;1.67;;;20.30;82.90;;;;;;6174690;23;20005;-75
2022/09/14 01:06:34;;;;;;;2.90;1.60;;;20.30;82.90;;;;;;6175360;23;20036;-77
2022/09/14 01:09:11;;;;;;;4.13;1.60;;;20.20;82.90;;;;;;6200452;23;20009;-78
2022/09/14 01:12:01;;;;;;;3.78;1.80;;;20.30;83.00;;;;;;6177611;23;20015;-76
2022/09/14 01:14:31;;;;;;;2.70;1.40;;;20.30;83.00;;;;;;6175790;23;20012;-77
2022/09/14 01:17:37;;;;;;;3.10;1.70;;;20.20;83.00;;;;;;6177873;23;20012;-77
2022/09/14 01:20:18;;;;;;;3.30;1.65;;;20.20;83.00;;;;;;6177051;23;20233;-77
2022/09/14 01:22:47;;;;;;;4.13;1.98;;;20.20;83.00;;;;;;6198503;23;20012;-75
2022/09/14 01:25:20;;;;;;;2.55;1.45;;;20.20;83.00;;;;;;6211183;23;20490;-77
2022/09/14 01:27:48;;;;;;;3.15;1.55;;;20.30;83.00;;;;;;6184832;23;20059;-76
2022/09/14 01:30:19;;;;;;;2.85;1.60;;;20.30;82.90;;;;;;6184146;23;20015;-80
2022/09/14 01:32:48;;;;;;;2.97;1.60;;;20.30;82.90;;;;;;6184212;23;20360;-77
2022/09/14 01:35:35;;;;;;;3.35;1.50;;;20.30;82.80;;;;;;6184799;23;20880;-78
2022/09/14 01:38:17;;;;;;;3.63;1.60;;;20.30;82.70;;;;;;6211581;23;20453;-76
2022/09/14 01:40:48;;;;;;;2.85;1.30;;;20.30;82.70;;;;;;6210830;23;20004;-77
2022/09/14 01:43:32;;;;;;;2.40;1.30;;;20.30;82.80;;;;;;6185064;23;20031;-76
2022/09/14 01:46:12;;;;;;;3.67;1.77;;;20.30;82.80;;;;;;6185177;23;20008;-76
2022/09/14 01:48:47;;;;;;;3.75;1.63;;;20.20;82.80;;;;;;6211044;23;20004;-76
2022/09/14 01:51:48;;;;;;;2.28;1.40;;;20.20;82.90;;;;;;6187342;23;20012;-79
2022/09/14 01:54:32;;;;;;;2.63;1.45;;;20.20;82.90;;;;;;6182864;23;20005;-78
2022/09/14 01:57:20;;;;;;;4.20;1.70;;;20.20;83.00;;;;;;6185203;23;19997;-76
2022/09/14 01:59:47;;;;;;;2.65;1.35;;;20.20;83.00;;;;;;6209936;23;19997;-76
2022/09/14 02:02:27;;;;;;;2.47;1.30;;;20.20;83.00;;;;;;6184823;23;20008;-78
2022/09/14 02:05:24;;;;;;;2.67;1.50;;;20.20;83.00;;;;;;6185502;23;20031;-78
2022/09/14 02:07:50;;;;;;;2.92;1.50;;;20.20;83.00;;;;;;6139455;23;20012;-76
2022/09/14 02:10:16;;;;;;;3.40;1.52;;;20.20;83.00;;;;;;6184520;23;20090;-77
2022/09/14 02:12:43;;;;;;;3.33;1.60;;;20.20;83.00;;;;;;6211156;23;20355;-77
2022/09/14 02:15:11;;;;;;;3.35;1.50;;;20.20;83.00;;;;;;6211260;23;20080;-75
2022/09/14 02:17:38;;;;;;;2.72;1.40;;;20.20;83.00;;;;;;6211290;23;20063;-78
2022/09/14 02:20:08;;;;;;;3.25;1.80;;;20.30;82.90;;;;;;6210366;23;20450;-76
2022/09/14 02:22:34;;;;;;;3.25;1.25;;;20.30;82.90;;;;;;6177280;23;20096;-77
2022/09/14 02:25:01;;;;;;;3.17;1.40;;;20.20;82.80;;;;;;6178644;23;20005;-78
2022/09/14 02:27:26;;;;;;;3.75;1.48;;;20.30;82.80;;;;;;6178158;23;20024;-77
2022/09/14 02:29:52;;;;;;;3.40;1.40;;;20.30;82.80;;;;;;6177425;23;20033;-77
2022/09/14 02:32:41;;;;;;;2.50;1.27;;;20.30;82.80;;;;;;6177512;23;20521;-75
2022/09/14 02:35:18;;;;;;;2.92;1.60;;;20.30;82.80;;;;;;6177125;23;20438;-78
2022/09/14 02:38:05;;;;;;;2.03;1.33;;;20.20;82.80;;;;;;6179850;23;20015;-78
2022/09/14 02:40:40;;;;;;;2.58;1.40;;;20.20;82.90;;;;;;6179531;23;20005;-77
2022/09/14 02:43:13;;;;;;;2.72;1.48;;;20.20;83.00;;;;;;6178379;23;20008;-77
2022/09/14 02:46:09;;;;;;;2.50;1.10;;;20.20;82.90;;;;;;6179458;23;20001;-76
2022/09/14 02:48:59;;;;;;;2.75;1.30;;;20.20;83.00;;;;;;6180567;23;20335;-76
2022/09/14 02:51:34;;;;;;;2.40;1.35;;;20.20;83.00;;;;;;6205920;23;20036;-76
2022/09/14 02:54:21;;;;;;;2.55;1.30;;;20.20;83.00;;;;;;6181546;23;20001;-76
2022/09/14 02:56:47;;;;;;;3.45;1.65;;;20.20;83.00;;;;;;6179902;23;20593;-76
2022/09/14 02:59:12;;;;;;;2.30;1.40;;;20.20;83.10;;;;;;6180594;23;20036;-76
2022/09/14 03:01:38;;;;;;;2.92;1.38;;;20.20;83.10;;;;;;6178750;23;20012;-78
2022/09/14 03:04:04;;;;;;;3.10;1.35;;;20.20;83.00;;;;;;6178067;23;20005;-75
2022/09/14 03:06:29;;;;;;;2.40;1.27;;;20.20;83.00;;;;;;6186363;23;20025;-77
2022/09/14 03:08:55;;;;;;;3.67;1.50;;;20.20;82.90;;;;;;6178920;23;20044;-77
2022/09/14 03:11:20;;;;;;;2.25;1.15;;;20.20;82.90;;;;;;6178637;23;20028;-78
2022/09/14 03:13:46;;;;;;;2.10;1.17;;;20.20;82.80;;;;;;6177610;23;20008;-77
2022/09/14 03:16:14;;;;;;;2.47;1.25;;;20.30;82.80;;;;;;6180401;23;20008;-77
2022/09/14 03:18:40;;;;;;;2.83;1.40;;;20.20;82.70;;;;;;6178917;23;20024;-78
2022/09/14 03:21:10;;;;;;;2.30;1.23;;;20.30;82.80;;;;;;6179434;23;20415;-80
2022/09/14 03:23:41;;;;;;;2.03;1.23;;;20.20;82.70;;;;;;6177770;23;20017;-77
2022/09/14 03:26:09;;;;;;;3.05;1.33;;;20.20;82.80;;;;;;6178507;23;20060;-77
2022/09/14 03:28:35;;;;;;;3.10;1.25;;;20.20;82.90;;;;;;6179574;23;20005;-77
2022/09/14 03:31:05;;;;;;;2.67;1.38;;;20.20;82.90;;;;;;6179205;23;20011;-77
2022/09/14 03:33:31;;;;;;;2.60;1.10;;;20.20;82.90;;;;;;6181919;23;19997;-75
2022/09/14 03:35:57;;;;;;;1.63;1.00;;;20.20;82.90;;;;;;6179000;23;20092;-78
2022/09/14 03:38:25;;;;;;;1.92;1.20;;;20.20;83.00;;;;;;6179894;23;20015;-79
2022/09/14 03:40:52;;;;;;;2.10;1.30;;;20.20;83.00;;;;;;6175412;23;20005;-76
2022/09/14 03:43:17;;;;;;;2.17;1.33;;;20.20;83.00;;;;;;6177876;23;20032;-76
2022/09/14 03:45:42;;;;;;;4.20;1.50;;;20.20;83.00;;;;;;6177020;23;20016;-78
2022/09/14 03:48:10;;;;;;;3.40;1.20;;;20.10;83.00;;;;;;6179224;23;20001;-77
2022/09/14 03:50:36;;;;;;;2.20;1.10;;;20.20;83.00;;;;;;6176589;23;20035;-77
2022/09/14 03:53:03;;;;;;;2.35;1.40;;;20.10;83.00;;;;;;6178206;23;20009;-76
2022/09/14 03:55:29;;;;;;;2.10;1.15;;;20.20;83.00;;;;;;6178462;23;20081;-76
2022/09/14 03:57:55;;;;;;;2.88;1.30;;;20.20;83.00;;;;;;6178868;23;20028;-75
2022/09/14 04:00:21;;;;;;;2.67;1.30;;;20.20;82.90;;;;;;6175117;23;20012;-76
2022/09/14 04:02:46;;;;;;;4.55;1.70;;;20.20;82.80;;;;;;6177493;23;20075;-75
2022/09/14 04:05:12;;;;;;;2.22;1.10;;;20.20;82.80;;;;;;6172994;23;20434;-78
2022/09/14 04:07:38;;;;;;;1.85;1.20;;;20.20;82.70;;;;;;6176058;23;20032;-75
2022/09/14 04:10:06;;;;;;;2.95;1.40;;;20.20;82.80;;;;;;6175388;23;20016;-75
2022/09/14 04:12:36;;;;;;;3.10;1.20;;;20.20;82.80;;;;;;6174778;23;20016;-75
2022/09/14 04:15:03;;;;;;;3.47;1.40;;;20.20;82.80;;;;;;6174475;23;20012;-76
2022/09/14 04:17:29;;;;;;;2.75;1.30;;;20.20;82.80;;;;;;6174283;23;20013;-75
2022/09/14 04:19:55;;;;;;;2.92;1.30;;;20.20;82.90;;;;;;6171518;23;20005;-78
2022/09/14 04:22:20;;;;;;;2.58;1.27;;;20.20;82.90;;;;;;6173866;23;20045;-77
2022/09/14 04:24:46;;;;;;;3.03;1.30;;;20.20;83.00;;;;;;6176046;23;20328;-76
2022/09/14 04:27:12;;;;;;;2.33;1.17;;;20.10;82.90;;;;;;6174318;23;20019;-76
2022/09/14 04:29:38;;;;;;;2.35;1.27;;;20.10;83.00;;;;;;6171542;23;20092;-75
2022/09/14 04:32:03;;;;;;;2.55;1.23;;;20.10;83.00;;;;;;6174715;23;20012;-78
2022/09/14 04:34:29;;;;;;;1.63;1.08;;;20.10;83.00;;;;;;6175751;23;20005;-75
2022/09/14 04:36:54;;;;;;;3.78;1.27;;;20.10;83.00;;;;;;6172374;23;20013;-78
2022/09/14 04:39:20;;;;;;;2.70;1.25;;;20.10;83.00;;;;;;6180810;23;20001;-78
2022/09/14 04:41:46;;;;;;;2.60;1.10;;;20.10;83.00;;;;;;6182904;23;20124;-78
2022/09/14 04:44:12;;;;;;;2.75;1.10;;;20.10;82.90;;;;;;6181682;23;20009;-77
2022/09/14 04:46:40;;;;;;;3.42;1.40;;;20.20;83.00;;;;;;6177709;23;20395;-80
2022/09/14 04:49:05;;;;;;;2.42;1.20;;;20.20;82.90;;;;;;6179490;23;20016;-76
2022/09/14 04:51:32;;;;;;;2.83;1.20;;;20.20;82.90;;;;;;6180173;23;20005;-77
2022/09/14 04:53:59;;;;;;;2.90;1.40;;;20.20;82.80;;;;;;6178233;23;20012;-78
2022/09/14 04:56:25;;;;;;;2.65;1.10;;;20.20;82.80;;;;;;6180629;23;20080;-77
2022/09/14 04:58:54;;;;;;;2.78;1.10;;;20.20;82.70;;;;;;6178535;23;20204;-80
2022/09/14 05:01:22;;;;;;;2.45;1.08;;;20.20;82.80;;;;;;6178805;23;20004;-79
2022/09/14 05:03:49;;;;;;;3.03;1.30;;;20.20;82.80;;;;;;6178969;23;19997;-76
2022/09/14 05:06:17;;;;;;;2.05;1.20;;;20.20;82.80;;;;;;6178600;23;20858;-76
2022/09/14 05:08:43;;;;;;;3.40;1.08;;;20.10;82.80;;;;;;6177285;23;20005;-76
2022/09/14 05:11:12;;;;;;;2.63;1.30;;;19.80;82.50;;;;;;6178440;23;20084;-77
2022/09/14 05:13:38;;;;;;;1.90;1.10;;;20.10;82.70;;;;;;6178856;23;20001;-80
2022/09/14 05:16:18;;;;;;;3.92;1.45;;;20.20;82.90;;;;;;6178989;23;20028;-76
2022/09/14 05:18:45;;;;;;;8.82;1.63;;;20.10;82.70;;;;;;6178023;23;20028;-79
2022/09/14 05:21:14;;;;;;;14.77;2.15;;;20.10;82.60;;;;;;6177134;23;20458;-78
2022/09/14 05:23:39;;;;;;;3.72;1.30;;;20.10;82.60;;;;;;6206332;23;20066;-77
2022/09/14 05:26:06;;;;;;;5.60;1.38;;;20.10;82.60;;;;;;6207543;23;20009;-77
2022/09/14 05:28:32;;;;;;;10.90;1.70;;;20.10;82.60;;;;;;6180647;23;20013;-77
2022/09/14 05:30:58;;;;;;;5.60;1.50;;;20.10;82.50;;;;;;6179585;23;20008;-76
2022/09/14 05:33:24;;;;;;;7.95;1.73;;;20.10;82.60;;;;;;6179171;23;20005;-76
2022/09/14 05:35:51;;;;;;;6.47;1.65;;;20.10;82.50;;;;;;6176730;23;20008;-79
2022/09/14 05:38:16;;;;;;;7.63;1.50;;;20.10;82.50;;;;;;6178033;23;20005;-78
2022/09/14 05:40:42;;;;;;;11.30;1.77;;;20.10;82.50;;;;;;6177711;23;20449;-75
2022/09/14 05:43:08;;;;;;;8.38;1.60;;;20.20;82.50;;;;;;6179791;23;20457;-77
2022/09/14 05:45:34;;;;;;;8.65;2.00;;;20.20;82.40;;;;;;6205864;23;20012;-78
2022/09/14 05:48:03;;;;;;;6.53;1.70;;;20.20;82.40;;;;;;6207114;23;20362;-76
2022/09/14 05:50:32;;;;;;;12.10;2.30;;;20.20;82.40;;;;;;6179225;23;20015;-76
2022/09/14 05:52:58;;;;;;;7.93;1.45;;;20.10;82.40;;;;;;6180615;23;20095;-78
2022/09/14 05:55:24;;;;;;;8.85;1.75;;;20.20;82.50;;;;;;6180584;23;20422;-76
2022/09/14 05:57:50;;;;;;;9.27;1.80;;;20.10;82.50;;;;;;6180398;23;20224;-77
2022/09/14 06:00:17;;;;;;;6.53;1.40;;;20.10;82.60;;;;;;6180082;23;20247;-76
2022/09/14 06:02:47;;;;;;;6.47;1.58;;;20.10;82.70;;;;;;6207005;23;20425;-76
2022/09/14 06:05:13;;;;;;;6.45;1.70;;;20.10;82.80;;;;;;6180731;23;20015;-77
2022/09/14 06:07:38;;;;;;;5.45;1.60;;;20.10;82.80;;;;;;6182527;23;20013;-77
2022/09/14 06:10:04;;;;;;;9.65;2.53;;;20.10;82.90;;;;;;6182220;23;20008;-76
2022/09/14 06:12:30;;;;;;;6.03;1.60;;;20.10;82.90;;;;;;6182025;23;20553;-77
2022/09/14 06:14:55;;;;;;;7.93;1.80;;;20.10;82.90;;;;;;6182214;23;20039;-77
2022/09/14 06:17:21;;;;;;;4.70;1.50;;;20.10;83.00;;;;;;6208026;23;20009;-80
2022/09/14 06:19:46;;;;;;;5.53;1.30;;;20.10;83.50;;;;;;6182753;23;20346;-75
2022/09/14 06:22:12;;;;;;;5.47;1.63;;;20.10;83.00;;;;;;6179591;23;20013;-78
2022/09/14 06:24:37;;;;;;;6.75;1.50;;;20.10;83.00;;;;;;6180371;23;20824;-77
2022/09/14 06:27:03;;;;;;;6.28;1.48;;;20.10;82.90;;;;;;6178711;23;20005;-77
2022/09/14 06:29:29;;;;;;;3.70;1.20;;;20.10;82.80;;;;;;6180286;23;20040;-79
2022/09/14 06:31:54;;;;;;;3.72;1.25;;;20.10;82.70;;;;;;6179725;23;20012;-77
2022/09/14 06:34:19;;;;;;;7.88;1.60;;;20.10;82.60;;;;;;6177589;23;20011;-80
2022/09/14 06:36:45;;;;;;;6.70;1.38;;;20.20;82.60;;;;;;6177783;23;20431;-77
2022/09/14 06:39:11;;;;;;;7.07;1.35;;;20.20;82.50;;;;;;6178694;23;20008;-77
2022/09/14 06:41:36;;;;;;;4.95;1.50;;;20.20;82.50;;;;;;6177154;23;20001;-79
2022/09/14 06:44:02;;;;;;;4.40;1.35;;;20.10;82.40;;;;;;6176313;23;20020;-77
2022/09/14 06:46:30;;;;;;;7.43;1.48;;;20.10;82.50;;;;;;6178346;23;20009;-76
2022/09/14 06:49:03;;;;;;;5.55;1.33;;;20.10;82.60;;;;;;6175755;23;20013;-77
2022/09/14 06:51:30;;;;;;;5.60;1.70;;;20.10;82.60;;;;;;6178035;23;20014;-76
2022/09/14 06:53:58;;;;;;;5.13;1.50;;;20.10;82.70;;;;;;6178472;23;19997;-78
2022/09/14 06:56:25;;;;;;;5.80;1.25;;;20.10;82.80;;;;;;6178741;23;20001;-76
2022/09/14 06:58:51;;;;;;;6.28;1.33;;;20.10;82.80;;;;;;6177154;23;20015;-76
2022/09/14 07:01:19;;;;;;;3.22;1.25;;;20.10;82.90;;;;;;6175661;23;20005;-76
2022/09/14 07:03:46;;;;;;;3.42;1.20;;;20.10;82.90;;;;;;6176224;23;20005;-76
2022/09/14 07:06:18;;;;;;;4.25;1.30;;;20.10;82.90;;;;;;6180478;23;20290;-77
2022/09/14 07:08:44;;;;;;;3.72;1.10;;;20.10;82.90;;;;;;6182481;23;20008;-77
2022/09/14 07:11:12;;;;;;;4.88;1.40;;;20.10;83.00;;;;;;6177376;23;20001;-79
2022/09/14 07:13:37;;;;;;;3.05;1.20;;;20.00;82.90;;;;;;6175630;23;20229;-76
2022/09/14 07:16:04;;;;;;;4.13;1.40;;;20.10;82.90;;;;;;6177122;23;20009;-80
2022/09/14 07:18:33;;;;;;;4.97;1.30;;;20.10;82.80;;;;;;6176669;23;20100;-76
2022/09/14 07:21:05;;;;;;;4.65;1.30;;;20.10;82.80;;;;;;6176439;23;20005;-78
2022/09/14 07:23:32;;;;;;;4.20;1.17;;;20.20;82.80;;;;;;6205280;23;20316;-77
2022/09/14 07:26:03;;;;;;;4.72;1.40;;;20.20;82.70;;;;;;6181986;23;20004;-77
2022/09/14 07:28:29;;;;;;;4.10;1.35;;;20.20;82.70;;;;;;6183331;23;20331;-78
2022/09/14 07:30:55;;;;;;;4.25;1.10;;;20.20;82.70;;;;;;6182173;23;20011;-77
2022/09/14 07:33:20;;;;;;;5.05;1.30;;;20.20;82.70;;;;;;6183380;23;20092;-79
2022/09/14 07:35:46;;;;;;;3.50;1.20;;;20.20;82.70;;;;;;6182765;23;19996;-80
2022/09/14 07:38:11;;;;;;;3.80;1.38;;;20.20;82.80;;;;;;6182292;23;20005;-77
2022/09/14 07:40:37;;;;;;;3.75;1.00;;;20.20;82.80;;;;;;6181531;23;20032;-79
2022/09/14 07:43:02;;;;;;;2.50;1.23;;;20.20;82.80;;;;;;6182219;23;20008;-80
2022/09/14 07:45:28;;;;;;;3.97;1.60;;;20.20;82.90;;;;;;6209350;23;20450;-78
2022/09/14 07:47:55;;;;;;;4.00;1.20;;;20.20;82.90;;;;;;6181855;23;20430;-76
2022/09/14 07:50:20;;;;;;;3.70;1.30;;;20.10;82.90;;;;;;6207964;23;20280;-76
2022/09/14 07:52:50;;;;;;;4.38;1.42;;;20.10;82.90;;;;;;6182330;23;20013;-76
2022/09/14 07:55:15;;;;;;;5.63;1.40;;;20.10;82.90;;;;;;6181969;23;20028;-78
2022/09/14 07:57:41;;;;;;;2.22;1.10;;;20.10;82.90;;;;;;6183484;23;20076;-79
2022/09/14 08:00:07;;;;;;;3.95;1.20;;;20.10;83.00;;;;;;6181151;23;20011;-76
2022/09/14 08:02:33;;;;;;;2.42;1.15;;;20.10;83.00;;;;;;6181442;23;20088;-78
2022/09/14 08:04:58;;;;;;;3.75;1.23;;;20.10;83.00;;;;;;6207955;23;20028;-76
2022/09/14 08:07:24;;;;;;;3.03;1.30;;;20.10;83.00;;;;;;6181872;23;20009;-77
2022/09/14 08:09:49;;;;;;;3.13;1.30;;;20.20;83.00;;;;;;6181038;23;20008;-79
2022/09/14 08:12:15;;;;;;;3.70;1.20;;;20.20;82.90;;;;;;6182682;23;20008;-76
2022/09/14 08:14:41;;;;;;;2.45;1.10;;;20.20;82.80;;;;;;6208296;23;20161;-77
2022/09/14 08:17:09;;;;;;;3.45;1.30;;;20.20;82.80;;;;;;6181478;23;20473;-77
2022/09/14 08:19:35;;;;;;;4.57;1.30;;;20.10;82.60;;;;;;6181367;23;20004;-79
2022/09/14 08:22:02;;;;;;;2.55;1.10;;;20.20;82.70;;;;;;6208622;23;20067;-78
2022/09/14 08:24:27;;;;;;;3.78;1.20;;;20.20;82.70;;;;;;6206272;23;20059;-77
2022/09/14 08:26:53;;;;;;;3.30;1.40;;;20.10;82.70;;;;;;6182292;23;20004;-78
2022/09/14 08:29:19;;;;;;;3.42;1.45;;;20.20;82.80;;;;;;6181139;23;20454;-77
2022/09/14 08:31:45;;;;;;;2.70;1.33;;;20.20;82.80;;;;;;6181672;23;20009;-77
2022/09/14 08:34:12;;;;;;;1.88;1.10;;;20.20;82.90;;;;;;6182611;23;20012;-77
2022/09/14 08:36:39;;;;;;;5.60;1.30;;;20.20;82.90;;;;;;6181844;23;20005;-78
2022/09/14 08:39:08;;;;;;;4.07;1.20;;;20.10;82.80;;;;;;6179581;23;20055;-80
2022/09/14 08:41:45;;;;;;;2.28;1.00;;;20.20;83.00;;;;;;6182077;23;20320;-78
2022/09/14 08:44:10;;;;;;;3.30;1.30;;;20.20;83.00;;;;;;6183221;23;20043;-78
2022/09/14 08:46:52;;;;;;;5.78;1.45;;;20.20;83.10;;;;;;6183076;23;20349;-76
2022/09/14 08:49:34;;;;;;;2.70;1.00;;;20.10;83.00;;;;;;6180622;23;20063;-77
2022/09/14 08:52:00;;;;;;;4.07;1.30;;;20.10;83.00;;;;;;6184931;23;20062;-76
2022/09/14 08:54:26;;;;;;;2.95;1.00;;;20.10;83.00;;;;;;6182591;23;20004;-81
2022/09/14 08:57:21;;;;;;;3.78;1.67;;;20.20;83.10;;;;;;6195944;23;20016;-82
2022/09/14 08:59:53;;;;;;;4.55;1.23;;;20.20;82.90;;;;;;6224214;23;20007;-85
2022/09/14 09:02:39;;;;;;;4.78;1.30;;;20.20;82.80;;;;;;6187312;23;20023;-79
2022/09/14 09:05:17;;;;;;;6.05;1.20;;;20.20;82.40;;;;;;6222224;23;20001;-84
2022/09/14 09:08:04;;;;;;;5.53;1.40;;;20.20;82.20;;;;;;6221989;23;20335;-84
2022/09/14 09:10:35;;;;;;;6.88;1.42;;;20.20;82.10;;;;;;6187046;23;20017;-77
2022/09/14 09:13:04;;;;;;;5.35;1.40;;;20.20;82.10;;;;;;6154549;23;20012;-79
2022/09/14 09:15:35;;;;;;;4.93;1.33;;;20.20;82.10;;;;;;6150714;23;20495;-77
2022/09/14 09:18:13;;;;;;;6.30;1.40;;;20.20;82.30;;;;;;6151816;23;20144;-78
2022/09/14 09:20:46;;;;;;;4.82;1.10;;;20.20;82.30;;;;;;6178716;23;20165;-77
2022/09/14 09:23:16;;;;;;;3.08;1.00;;;20.20;82.30;;;;;;6144712;23;20329;-79
2022/09/14 09:25:57;;;;;;;4.38;1.20;;;20.30;82.50;;;;;;6149854;23;20009;-77
2022/09/14 09:28:24;;;;;;;;;;;20.20;82.40;;;;;;6151813;23;20012;-77
2022/09/14 09:30:52;;;;;;;2.70;1.08;;;20.20;82.50;;;;;;6148443;23;19905;-80
2022/09/14 09:33:23;;;;;;;4.28;1.20;;;20.20;82.50;;;;;;6146576;23;20083;-78
2022/09/14 09:35:50;;;;;;;3.47;1.23;;;20.20;82.50;;;;;;6148529;23;20081;-79
2022/09/14 09:38:18;;;;;;;3.60;1.30;;;20.30;82.60;;;;;;6147704;23;20637;-78
2022/09/14 09:40:48;;;;;;;5.03;1.00;;;20.20;82.60;;;;;;6147356;23;20423;-78
2022/09/14 09:43:17;;;;;;;3.38;1.02;;;20.20;82.50;;;;;;6149392;23;20521;-79
2022/09/14 09:45:58;;;;;;;3.60;1.38;;;20.10;82.60;;;;;;6148701;23;20005;-78
2022/09/14 09:48:47;;;;;;;2.78;1.17;;;20.20;82.60;;;;;;6148608;23;20085;-77
2022/09/14 09:51:29;;;;;;;3.38;1.20;;;20.10;82.40;;;;;;6173341;23;20017;-78
2022/09/14 09:54:15;;;;;;;2.92;1.10;;;20.20;82.50;;;;;;6149964;23;20009;-78
2022/09/14 09:56:58;;;;;;;3.13;1.05;;;20.20;82.40;;;;;;6149462;23;20092;-77
2022/09/14 09:59:34;;;;;;;3.05;1.17;;;20.20;82.30;;;;;;6147744;23;20012;-78
2022/09/14 10:02:21;;;;;;;5.22;1.30;;;20.20;82.30;;;;;;6146233;23;20009;-78
2022/09/14 10:05:17;;;;;;;3.97;1.05;;;20.20;82.30;;;;;;6147876;23;20547;-78
2022/09/14 10:07:56;;;;;;;3.72;1.38;;;20.20;82.30;;;;;;6147200;23;20089;-77
2022/09/14 10:10:41;;;;;;;2.70;1.20;;;20.20;82.40;;;;;;6146871;23;20006;-77
2022/09/14 10:13:24;;;;;;;3.30;1.00;;;20.20;82.40;;;;;;6146967;23;20020;-76
2022/09/14 10:15:50;;;;;;;5.55;1.20;;;20.30;82.50;;;;;;6146725;23;20001;-78
2022/09/14 10:18:17;;;;;;;3.42;1.17;;;20.20;82.50;;;;;;6147935;23;20021;-80
2022/09/14 10:21:05;;;;;;;3.03;1.05;;;20.20;82.60;;;;;;6146099;23;20533;-78
2022/09/14 10:23:35;;;;;;;1.77;0.95;;;20.20;82.60;;;;;;6147851;23;20347;-77
2022/09/14 10:26:12;;;;;;;4.75;1.30;;;20.10;82.50;;;;;;6149076;23;20005;-78
2022/09/14 10:28:46;;;;;;;2.85;1.00;;;20.10;82.60;;;;;;6148767;23;20794;-77
2022/09/14 10:31:19;;;;;;;4.43;1.27;;;20.10;82.60;;;;;;6147551;23;20006;-77
2022/09/14 10:33:46;;;;;;;2.42;1.10;;;20.10;82.70;;;;;;6146971;23;20009;-77
2022/09/14 10:36:32;;;;;;;4.32;1.25;;;20.10;83.20;;;;;;6150686;23;20009;-79
2022/09/14 10:39:16;;;;;;;4.93;1.23;;;20.10;82.70;;;;;;6172946;23;20442;-77
2022/09/14 10:42:02;;;;;;;4.63;1.13;;;20.10;82.70;;;;;;6172018;23;20065;-77
2022/09/14 10:44:58;;;;;;;2.92;1.20;;;20.10;82.60;;;;;;6147754;23;20028;-76
2022/09/14 10:47:44;;;;;;;2.45;1.08;;;20.10;82.50;;;;;;6149165;23;20009;-79
2022/09/14 10:50:35;;;;;;;2.67;1.00;;;20.20;82.40;;;;;;6147456;23;20010;-80
2022/09/14 10:53:24;;;;;;;3.58;1.20;;;20.20;82.40;;;;;;6171923;23;20071;-78
2022/09/14 10:56:20;;;;;;;2.35;1.02;;;20.20;82.40;;;;;;6151598;23;20382;-79
2022/09/14 10:58:55;;;;;;;2.70;1.13;;;20.20;82.40;;;;;;6148996;23;20012;-76
2022/09/14 11:01:28;;;;;;;3.65;1.10;;;20.20;82.50;;;;;;6150773;23;20250;-78
2022/09/14 11:04:23;;;;;;;3.88;1.35;;;20.10;82.40;;;;;;6149930;23;20002;-77
2022/09/14 11:07:19;;;;;;;2.78;1.17;;;20.20;82.60;;;;;;6146511;23;20005;-77
2022/09/14 11:10:22;;;;;;;1.50;0.90;;;20.10;82.60;;;;;;6162074;23;20411;-79
2022/09/14 11:13:25;;;;;;;3.78;1.10;;;20.10;82.60;;;;;;6148744;23;20065;-78
2022/09/14 11:16:20;;;;;;;2.47;1.20;;;20.10;82.70;;;;;;6148189;23;20032;-77
2022/09/14 11:18:59;;;;;;;1.73;0.90;;;20.10;82.70;;;;;;6155390;23;20009;-78
2022/09/14 11:21:36;;;;;;;1.75;0.93;;;20.10;82.70;;;;;;6148540;23;20006;-80
2022/09/14 11:24:13;;;;;;;2.50;1.08;;;20.10;82.80;;;;;;6152020;23;20091;-79
2022/09/14 11:26:47;;;;;;;3.55;1.00;;;20.10;82.80;;;;;;6152260;23;20435;-78
2022/09/14 11:29:27;;;;;;;2.40;1.00;;;20.10;82.80;;;;;;6147741;23;20327;-79
2022/09/14 11:32:29;;;;;;;2.83;1.30;;;20.10;82.80;;;;;;6150004;23;20016;-79
2022/09/14 11:35:13;;;;;;;3.00;1.00;;;20.10;82.70;;;;;;6178971;23;20052;-78
2022/09/14 11:37:46;;;;;;;3.20;1.02;;;20.10;82.60;;;;;;6153362;23;20009;-78
2022/09/14 11:40:31;;;;;;;3.17;0.98;;;20.20;82.60;;;;;;6179917;23;20004;-78
2022/09/14 11:43:10;;;;;;;2.97;0.90;;;20.20;82.50;;;;;;6153792;23;20004;-78
2022/09/14 11:45:57;;;;;;;2.92;1.27;;;20.20;82.50;;;;;;6156012;23;20005;-78
2022/09/14 11:49:11;;;;;;;2.00;1.00;;;20.20;82.50;;;;;;6181267;23;19997;-81
2022/09/14 11:51:51;;;;;;;2.22;1.02;;;20.10;82.50;;;;;;6178445;23;20335;-77
2022/09/14 11:54:20;;;;;;;3.10;0.90;;;20.10;82.60;;;;;;6150412;23;20032;-77
2022/09/14 11:56:52;;;;;;;2.20;1.00;;;20.10;82.70;;;;;;6152607;23;20109;-78
2022/09/14 11:59:54;;;;;;;1.98;1.02;;;20.10;82.70;;;;;;6152093;23;20001;-79
2022/09/14 12:02:29;;;;;;;2.95;0.90;;;20.10;82.70;;;;;;6055972;23;20401;-78
2022/09/14 12:05:03;;;;;;;1.90;0.90;;;20.10;82.80;;;;;;6158576;23;20015;-78
2022/09/14 12:07:41;;;;;;;2.67;1.10;;;20.10;82.80;;;;;;6152137;23;20443;-78
2022/09/14 12:10:28;;;;;;;2.00;0.93;;;20.10;82.80;;;;;;6150828;23;20443;-77
2022/09/14 12:12:53;;;;;;;3.83;1.20;;;20.00;82.80;;;;;;6151574;23;20359;-78
2022/09/14 12:15:27;;;;;;;1.63;1.00;;;20.10;82.90;;;;;;6177195;23;20068;-78
2022/09/14 12:18:05;;;;;;;4.18;1.10;;;20.10;82.90;;;;;;6151760;23;20004;-77
2022/09/14 12:20:36;;;;;;;1.73;0.82;;;20.10;82.90;;;;;;6151077;23;20079;-78
2022/09/14 12:23:30;;;;;;;2.25;0.95;;;20.00;82.80;;;;;;6146536;23;20041;-78
2022/09/14 12:26:04;;;;;;;3.22;1.10;;;20.10;82.80;;;;;;6171422;23;20092;-79
2022/09/14 12:28:40;;;;;;;2.53;0.95;;;20.10;82.70;;;;;;6149970;23;20005;-77
2022/09/14 12:31:10;;;;;;;1.70;0.90;;;20.10;82.70;;;;;;6149855;23;20009;-78
2022/09/14 12:33:35;;;;;;;2.67;0.90;;;20.10;82.70;;;;;;6172103;23;20319;-77
2022/09/14 12:36:09;;;;;;;2.22;0.93;;;20.10;82.60;;;;;;6146460;23;20005;-77
2022/09/14 12:38:53;;;;;;;2.72;1.00;;;20.10;82.60;;;;;;6145439;23;20005;-79
2022/09/14 12:41:19;;;;;;;1.80;0.98;;;20.10;82.60;;;;;;6146738;23;20005;-80
2022/09/14 12:43:45;;;;;;;1.63;0.88;;;20.10;82.70;;;;;;6144853;23;20096;-81
2022/09/14 12:46:20;;;;;;;1.60;0.98;;;20.10;82.70;;;;;;6153125;23;20002;-77
2022/09/14 12:48:46;;;;;;;1.58;0.90;;;20.10;82.80;;;;;;6146562;23;20455;-77
2022/09/14 12:51:30;;;;;;;3.05;1.00;;;20.10;82.80;;;;;;6147940;23;20017;-77
2022/09/14 12:54:08;;;;;;;1.83;1.00;;;20.10;82.80;;;;;;6151125;23;20342;-78
2022/09/14 12:56:42;;;;;;;1.55;0.90;;;20.10;82.80;;;;;;6146680;23;20009;-80
2022/09/14 12:59:34;;;;;;;1.70;0.85;;;20.10;82.90;;;;;;6147510;23;20010;-76
2022/09/14 13:02:34;;;;;;;1.75;0.90;;;20.10;82.90;;;;;;6174154;23;20009;-75
2022/09/14 13:05:02;;;;;;;2.60;0.88;;;20.00;82.90;;;;;;6150505;23;20357;-79
2022/09/14 13:07:32;;;;;;;2.60;0.98;;;20.10;82.90;;;;;;6145940;23;20445;-77
2022/09/14 13:10:00;;;;;;;2.92;1.02;;;20.00;82.90;;;;;;6145878;23;20009;-78
2022/09/14 13:12:46;;;;;;;3.15;1.00;;;20.00;82.90;;;;;;6150913;23;20288;-78
2022/09/14 13:15:20;;;;;;;1.63;0.88;;;20.10;82.90;;;;;;6150046;23;20002;-77